createdAt,value
2019-01-28T04:23:18.016Z,1.67
2019-01-28T04:25:47.153Z,1.85
2019-01-28T04:28:16.276Z,1.87
2019-01-28T04:30:45.403Z,1.82
2019-01-28T04:33:14.573Z,1.65
2019-01-28T04:35:43.717Z,1.70
2019-01-28T04:38:12.849Z,1.74
2019-01-28T04:40:42.043Z,1.82
2019-01-28T04:43:11.196Z,1.83
2019-01-28T04:45:40.297Z,1.79
2019-01-28T04:48:09.532Z,1.93
2019-01-28T04:50:38.672Z,1.88
2019-01-28T04:53:07.804Z,1.91
2019-01-28T04:55:36.917Z,1.66
2019-01-28T04:58:06.102Z,1.81
2019-01-28T05:00:35.272Z,1.78
2019-01-28T05:03:04.721Z,1.66
2019-01-28T05:05:33.930Z,1.84
2019-01-28T05:08:03.049Z,1.89
2019-01-28T05:10:32.222Z,1.76
2019-01-28T05:13:01.342Z,1.71
2019-01-28T05:15:30.547Z,1.66
2019-01-28T05:17:59.741Z,1.74
2019-01-28T05:20:29.171Z,1.83
2019-01-28T05:22:58.275Z,1.80
2019-01-28T05:25:27.425Z,1.83
2019-01-28T05:27:56.549Z,1.87
2019-01-28T05:30:25.923Z,1.88
2019-01-28T05:32:55.091Z,1.78
2019-01-28T05:35:24.322Z,1.80
2019-01-28T05:37:53.474Z,1.76
2019-01-28T05:40:24.152Z,1.79
2019-01-28T05:43:13.847Z,1.90
2019-01-28T05:45:42.976Z,1.78
2019-01-28T05:48:12.121Z,1.88
2019-01-28T05:50:41.471Z,1.83
2019-01-28T05:53:10.592Z,1.80
2019-01-28T05:55:39.823Z,1.72
2019-01-28T05:58:08.943Z,1.75
2019-01-28T06:00:41.318Z,1.71
2019-01-28T06:03:10.449Z,1.80
2019-01-28T06:05:40.113Z,1.73
2019-01-28T06:08:09.348Z,1.66
2019-01-28T06:10:38.583Z,1.74
2019-01-28T06:13:07.738Z,1.70
2019-01-28T06:15:36.891Z,1.71
2019-01-28T06:18:06.110Z,1.75
2019-01-28T06:20:35.508Z,1.73
2019-01-28T06:23:04.621Z,1.76
2019-01-28T06:25:33.859Z,1.75
2019-01-28T06:28:03.047Z,1.73
2019-01-28T06:30:32.546Z,1.87
2019-01-28T06:33:01.712Z,1.84
2019-01-28T06:35:31.060Z,1.85
2019-01-28T06:38:00.162Z,1.78
2019-01-28T06:40:31.709Z,1.82
2019-01-28T06:43:00.808Z,1.77
2019-01-28T06:45:30.065Z,1.86
2019-01-28T06:47:59.783Z,1.80
2019-01-28T06:50:32.645Z,1.79
2019-01-28T06:53:01.752Z,1.83
2019-01-28T06:55:30.871Z,1.83
2019-01-28T06:58:00.066Z,1.86
2019-01-28T07:00:34.197Z,1.87
2019-01-28T07:03:03.541Z,1.88
2019-01-28T07:05:32.732Z,1.83
2019-01-28T07:08:02.738Z,1.87
2019-01-28T07:10:31.909Z,1.87
2019-01-28T07:13:01.768Z,1.85
2019-01-28T07:15:30.881Z,1.89
2019-01-28T07:18:00.002Z,1.88
2019-01-28T07:20:30.822Z,1.89
2019-01-28T07:23:00.505Z,1.88
2019-01-28T07:25:29.682Z,1.84
2019-01-28T07:27:58.938Z,1.91
2019-01-28T07:30:33.015Z,1.90
2019-01-28T07:33:02.180Z,1.89
2019-01-28T07:35:31.550Z,1.90
2019-01-28T07:38:00.697Z,1.88
2019-01-28T07:40:29.882Z,1.91
2019-01-28T07:42:59.414Z,1.86
2019-01-28T07:45:30.963Z,1.82
2019-01-28T07:48:03.161Z,1.80
2019-01-28T07:50:31.549Z,1.77
2019-01-28T07:53:00.797Z,1.74
2019-01-28T07:55:30.122Z,1.75
2019-01-28T07:57:59.801Z,1.70
2019-01-28T08:00:30.194Z,1.68
2019-01-28T08:02:59.553Z,1.68
2019-01-28T08:05:29.077Z,1.60
2019-01-28T08:07:58.363Z,1.66
2019-01-28T08:10:27.591Z,1.52
2019-01-28T08:12:57.306Z,1.36
2019-01-28T08:15:27.562Z,1.41
2019-01-28T08:17:56.789Z,1.35
2019-01-28T08:20:25.963Z,1.30
2019-01-28T08:22:55.259Z,1.26
2019-01-28T08:25:24.356Z,1.23
2019-01-28T08:27:53.600Z,1.20
2019-01-28T08:30:28.563Z,1.14
2019-01-28T08:32:57.753Z,1.19
2019-01-28T08:35:28.038Z,1.22
2019-01-28T08:37:57.200Z,1.20
2019-01-28T08:40:26.582Z,1.22
2019-01-28T08:42:55.860Z,1.13
2019-01-28T08:45:25.321Z,1.13
2019-01-28T08:47:54.478Z,1.05
2019-01-28T08:50:24.358Z,1.13
2019-01-28T08:52:53.878Z,1.02
2019-01-28T08:55:24.297Z,1.02
2019-01-28T08:57:53.797Z,1.01
2019-01-28T09:00:35.678Z,1.04
2019-01-28T09:03:05.108Z,1.03
2019-01-28T09:05:34.231Z,0.97
2019-01-28T09:08:03.372Z,0.99
2019-01-28T09:10:33.227Z,1.05
2019-01-28T09:13:02.326Z,1.08
2019-01-28T09:15:31.682Z,1.09
2019-01-28T09:18:01.147Z,1.15
2019-01-28T09:20:31.004Z,1.14
2019-01-28T09:23:00.399Z,1.19
2019-01-28T09:25:29.705Z,1.13
2019-01-28T09:27:58.849Z,1.15
2019-01-28T09:30:32.307Z,1.24
2019-01-28T09:33:01.428Z,1.19
2019-01-28T09:35:30.908Z,1.31
2019-01-28T09:38:00.652Z,1.28
2019-01-28T09:40:32.312Z,1.28
2019-01-28T09:43:01.472Z,1.32
2019-01-28T09:45:36.299Z,1.41
2019-01-28T09:48:06.000Z,1.33
2019-01-28T09:50:35.269Z,1.50
2019-01-28T09:53:04.743Z,1.52
2019-01-28T09:55:34.104Z,1.49
2019-01-28T09:58:03.396Z,1.55
2019-01-28T10:00:35.385Z,1.57
2019-01-28T10:03:05.135Z,1.58
2019-01-28T10:05:34.411Z,1.70
2019-01-28T10:08:03.554Z,1.67
2019-01-28T10:10:32.908Z,1.66
2019-01-28T10:13:02.052Z,1.64
2019-01-28T10:15:31.178Z,1.71
2019-01-28T10:18:00.488Z,1.67
2019-01-28T10:20:35.074Z,1.68
2019-01-28T10:23:05.964Z,1.75
2019-01-28T10:25:35.069Z,1.84
2019-01-28T10:28:04.428Z,1.82
2019-01-28T10:30:36.065Z,1.81
2019-01-28T10:33:06.507Z,1.94
2019-01-28T10:35:36.629Z,2.06
2019-01-28T10:38:06.411Z,1.97
2019-01-28T10:40:36.097Z,2.12
2019-01-28T10:43:07.585Z,2.03
2019-01-28T10:45:37.282Z,2.01
2019-01-28T10:48:07.791Z,2.14
2019-01-28T10:50:37.767Z,2.19
2019-01-28T10:53:06.921Z,2.28
2019-01-28T10:55:36.109Z,2.29
2019-01-28T10:58:05.823Z,2.22
2019-01-28T11:00:37.328Z,2.26
2019-01-28T11:03:07.879Z,2.21
2019-01-28T11:05:37.344Z,2.20
2019-01-28T11:08:07.227Z,2.28
2019-01-28T11:10:36.427Z,2.30
2019-01-28T11:13:06.603Z,2.35
2019-01-28T11:15:35.858Z,2.26
2019-01-28T11:18:08.279Z,2.27
2019-01-28T11:20:37.408Z,2.30
2019-01-28T11:23:06.626Z,2.32
2019-01-28T11:25:35.887Z,2.08
2019-01-28T11:28:05.021Z,2.24
2019-01-28T11:30:41.886Z,2.21
2019-01-28T11:33:10.966Z,2.24
2019-01-28T11:35:40.972Z,2.24
2019-01-28T11:38:10.696Z,2.15
2019-01-28T11:40:40.441Z,1.89
2019-01-28T11:43:10.753Z,1.95
2019-01-28T11:45:43.660Z,1.96
2019-01-28T11:48:12.870Z,1.95
2019-01-28T11:50:42.109Z,1.88
2019-01-28T11:53:11.366Z,1.91
2019-01-28T11:55:40.550Z,1.84
2019-01-28T11:58:09.767Z,1.88
2019-01-28T12:00:47.506Z,1.80
2019-01-28T12:03:16.673Z,1.95
2019-01-28T12:05:45.851Z,2.04
2019-01-28T12:08:14.986Z,1.95
2019-01-28T12:10:44.093Z,2.08
2019-01-28T12:13:13.241Z,2.17
2019-01-28T12:15:42.425Z,2.18
2019-01-28T12:18:11.537Z,2.19
2019-01-28T12:20:40.675Z,2.21
2019-01-28T12:23:09.883Z,2.33
2019-01-28T12:25:38.985Z,2.51
2019-01-28T12:28:08.357Z,2.52
2019-01-28T12:30:37.759Z,2.54
2019-01-28T12:33:06.987Z,2.47
2019-01-28T12:35:36.108Z,2.54
2019-01-28T12:38:05.797Z,2.41
2019-01-28T12:40:34.918Z,2.29
2019-01-28T12:43:04.835Z,2.34
2019-01-28T12:45:33.992Z,2.17
2019-01-28T12:48:03.084Z,2.28
2019-01-28T12:50:32.239Z,2.23
2019-01-28T12:53:01.354Z,2.23
2019-01-28T12:55:30.488Z,2.16
2019-01-28T12:57:59.635Z,2.20
2019-01-28T13:00:33.883Z,2.15
2019-01-28T13:03:03.214Z,2.18
2019-01-28T13:05:32.383Z,2.01
2019-01-28T13:08:01.541Z,2.14
2019-01-28T13:10:30.683Z,2.17
2019-01-28T13:12:59.826Z,1.95
2019-01-28T13:15:29.635Z,1.99
2019-01-28T13:17:58.887Z,2.04
2019-01-28T13:20:28.731Z,1.98
2019-01-28T13:22:58.178Z,2.04
2019-01-28T13:25:27.994Z,2.10
2019-01-28T13:27:57.178Z,1.99
2019-01-28T13:30:29.510Z,2.01
2019-01-28T13:33:00.245Z,1.98
2019-01-28T13:35:29.342Z,2.07
2019-01-28T13:37:58.836Z,1.95
2019-01-28T13:40:27.952Z,2.00
2019-01-28T13:42:57.095Z,2.02
2019-01-28T13:45:26.332Z,1.98
2019-01-28T13:47:55.904Z,1.95
2019-01-28T13:50:25.358Z,2.01
2019-01-28T13:52:54.712Z,2.05
2019-01-28T13:55:24.283Z,1.86
2019-01-28T13:57:53.408Z,1.91
2019-01-28T14:00:27.814Z,1.94
2019-01-28T14:02:57.416Z,1.98
2019-01-28T14:05:26.774Z,2.01
2019-01-28T14:07:56.562Z,2.15
2019-01-28T14:10:27.249Z,1.95
2019-01-28T14:12:56.631Z,2.00
2019-01-28T14:15:28.768Z,2.02
2019-01-28T14:17:58.397Z,2.01
2019-01-28T14:20:28.699Z,1.99
2019-01-28T14:22:57.941Z,1.95
2019-01-28T14:25:27.307Z,1.90
2019-01-28T14:27:56.779Z,1.93
2019-01-28T14:30:32.498Z,1.88
2019-01-28T14:33:01.720Z,1.87
2019-01-28T14:35:31.204Z,1.77
2019-01-28T14:38:00.552Z,1.88
2019-01-28T14:40:29.820Z,1.77
2019-01-28T14:42:58.972Z,1.73
2019-01-28T14:45:28.133Z,1.67
2019-01-28T14:47:57.705Z,1.58
2019-01-28T14:50:29.255Z,1.59
2019-01-28T14:52:58.647Z,1.59
2019-01-28T14:55:27.911Z,1.54
2019-01-28T14:57:57.659Z,1.52
2019-01-28T15:00:32.235Z,1.46
2019-01-28T15:03:01.479Z,1.47
2019-01-28T15:05:30.791Z,1.46
2019-01-28T15:07:59.976Z,1.50
2019-01-28T15:10:29.223Z,1.45
2019-01-28T15:12:58.378Z,1.37
2019-01-28T15:15:30.028Z,1.33
2019-01-28T15:17:59.719Z,1.32
2019-01-28T15:20:29.169Z,1.37
2019-01-28T15:22:59.609Z,1.36
2019-01-28T15:25:28.776Z,1.32
2019-01-28T15:27:58.357Z,1.33
2019-01-28T15:30:28.788Z,1.39
2019-01-28T15:32:57.972Z,1.48
2019-01-28T15:35:27.317Z,1.45
2019-01-28T15:37:56.506Z,1.54
2019-01-28T15:40:32.185Z,1.54
2019-01-28T15:43:01.068Z,1.50
2019-01-28T15:45:35.785Z,1.47
2019-01-28T15:48:05.592Z,1.48
2019-01-28T15:50:35.039Z,1.34
2019-01-28T15:53:04.932Z,1.33
2019-01-28T15:55:36.111Z,1.24
2019-01-28T15:58:05.920Z,1.18
2019-01-28T16:00:35.469Z,1.32
2019-01-28T16:03:06.447Z,1.31
2019-01-28T16:05:35.600Z,1.28
2019-01-28T16:08:05.118Z,1.27
2019-01-28T16:10:34.579Z,1.17
2019-01-28T16:13:03.771Z,1.14
2019-01-28T16:15:35.470Z,1.15
2019-01-28T16:18:08.778Z,1.20
2019-01-28T16:20:36.583Z,1.15
2019-01-28T16:23:06.854Z,1.13
2019-01-28T16:25:36.011Z,1.07
2019-01-28T16:28:05.695Z,1.13
2019-01-28T16:30:35.786Z,1.15
2019-01-28T16:33:08.405Z,1.17
2019-01-28T16:35:37.588Z,1.18
2019-01-28T16:38:06.871Z,1.12
2019-01-28T16:40:36.554Z,1.12
2019-01-28T16:43:06.428Z,1.15
2019-01-28T16:45:35.724Z,1.27
2019-01-28T16:48:06.311Z,1.19
2019-01-28T16:50:35.896Z,1.30
2019-01-28T16:53:05.366Z,1.29
2019-01-28T16:55:34.509Z,1.30
2019-01-28T16:58:04.674Z,1.44
2019-01-28T17:00:36.401Z,1.41
2019-01-28T17:03:07.280Z,1.51
2019-01-28T17:05:36.801Z,1.38
2019-01-28T17:08:06.909Z,1.38
2019-01-28T17:10:36.016Z,1.41
2019-01-28T17:13:09.662Z,1.45
2019-01-28T17:15:39.249Z,1.51
2019-01-28T17:18:08.584Z,1.56
2019-01-28T17:20:38.260Z,1.51
2019-01-28T17:23:07.687Z,1.56
2019-01-28T17:25:47.964Z,1.57
2019-01-28T17:28:17.183Z,1.65
2019-01-28T17:30:48.563Z,1.70
2019-01-28T17:33:17.714Z,1.72
2019-01-28T17:35:47.023Z,1.66
2019-01-28T17:38:16.145Z,1.68
2019-01-28T17:40:46.059Z,1.72
2019-01-28T17:43:16.485Z,1.73
2019-01-28T17:45:45.667Z,1.70
2019-01-28T17:48:14.888Z,1.70
2019-01-28T17:50:44.130Z,1.77
2019-01-28T17:53:13.308Z,1.64
2019-01-28T17:55:42.560Z,1.65
2019-01-28T17:58:11.692Z,1.61
2019-01-28T18:00:44.455Z,1.66
2019-01-28T18:03:13.619Z,1.60
2019-01-28T18:05:42.788Z,1.61
2019-01-28T18:08:12.006Z,1.58
2019-01-28T18:10:41.132Z,1.49
2019-01-28T18:13:10.342Z,1.46
2019-01-28T18:15:39.848Z,1.55
2019-01-28T18:18:09.049Z,1.43
2019-01-28T18:20:38.431Z,1.34
2019-01-28T18:23:10.051Z,1.34
2019-01-28T18:25:39.263Z,1.16
2019-01-28T18:28:08.424Z,1.01
2019-01-28T18:30:43.368Z,1.10
2019-01-28T18:33:12.514Z,0.99
2019-01-28T18:35:41.706Z,0.89
2019-01-28T18:38:11.028Z,0.89
2019-01-28T18:40:40.344Z,0.89
2019-01-28T18:43:09.672Z,0.83
2019-01-28T18:45:38.885Z,0.76
2019-01-28T18:48:09.306Z,0.76
2019-01-28T18:50:38.617Z,0.70
2019-01-28T18:53:08.325Z,0.71
2019-01-28T18:55:37.755Z,0.65
2019-01-28T18:58:07.081Z,0.68
2019-01-28T19:00:36.457Z,0.69
2019-01-28T19:03:06.109Z,0.71
2019-01-28T19:05:55.206Z,0.65
2019-01-28T19:08:45.351Z,0.65
2019-01-28T19:11:48.951Z,0.67
2019-01-28T19:14:37.022Z,0.59
2019-01-28T19:17:28.348Z,0.58
2019-01-28T19:20:03.508Z,0.62
2019-01-28T19:22:32.753Z,0.54
2019-01-28T19:25:01.944Z,0.52
2019-01-28T19:27:31.201Z,0.51
2019-01-28T19:30:00.681Z,0.55
2019-01-28T19:32:30.039Z,0.46
2019-01-28T19:34:59.371Z,0.44
2019-01-28T19:37:28.572Z,0.42
2019-01-28T19:39:57.696Z,0.40
2019-01-28T19:42:26.923Z,0.39
2019-01-28T19:44:56.324Z,0.40
2019-01-28T19:47:25.546Z,0.50
2019-01-28T19:49:56.949Z,0.41
2019-01-28T19:52:27.011Z,0.36
2019-01-28T19:54:56.282Z,0.45
2019-01-28T19:57:25.479Z,0.49
2019-01-28T19:59:54.801Z,0.40
2019-01-28T20:02:24.312Z,0.41
2019-01-28T20:04:53.420Z,0.34
2019-01-28T20:07:22.573Z,0.36
2019-01-28T20:09:51.878Z,0.34
2019-01-28T20:12:21.095Z,0.34
2019-01-28T20:14:50.204Z,0.37
2019-01-28T20:17:19.350Z,0.26
2019-01-28T20:19:49.447Z,0.41
2019-01-28T20:22:19.214Z,0.51
2019-01-28T20:24:49.333Z,0.40
2019-01-28T20:27:18.487Z,0.40
2019-01-28T20:29:49.738Z,0.43
2019-01-28T20:32:19.073Z,0.50
2019-01-28T20:34:48.499Z,0.48
2019-01-28T20:37:19.734Z,0.51
2019-01-28T20:39:49.069Z,0.41
2019-01-28T20:42:18.325Z,0.44
2019-01-28T20:44:47.690Z,0.42
2019-01-28T20:47:17.174Z,0.52
2019-01-28T20:49:46.306Z,0.42
2019-01-28T20:52:15.606Z,0.45
2019-01-28T20:54:44.743Z,0.42
2019-01-28T20:57:14.204Z,0.44
2019-01-28T20:59:43.340Z,0.49
2019-01-28T21:02:12.549Z,0.46
2019-01-28T21:04:41.817Z,0.44
2019-01-28T21:07:11.051Z,0.39
2019-01-28T21:09:40.416Z,0.46
2019-01-28T21:12:09.933Z,0.48
2019-01-28T21:14:39.189Z,0.48
2019-01-28T21:17:08.678Z,0.52
2019-01-28T21:19:37.752Z,0.44
2019-01-28T21:22:07.116Z,0.40
2019-01-28T21:24:36.277Z,0.43
2019-01-28T21:27:05.527Z,0.41
2019-01-28T21:29:34.667Z,0.37
2019-01-28T21:32:04.417Z,0.33
2019-01-28T21:34:33.587Z,0.32
2019-01-28T21:37:20.676Z,0.28
2019-01-28T21:39:49.939Z,0.31
2019-01-28T21:42:19.085Z,0.24
2019-01-28T21:44:48.228Z,0.22
2019-01-28T21:47:17.406Z,0.23
2019-01-28T21:49:46.601Z,0.23
2019-01-28T21:52:15.774Z,0.19
2019-01-28T21:54:45.126Z,0.09
2019-01-28T21:57:14.473Z,0.12
2019-01-28T21:59:43.571Z,0.13
2019-01-28T22:02:12.736Z,0.11
2019-01-28T22:04:42.015Z,0.15
2019-01-28T22:07:11.180Z,0.23
2019-01-28T22:09:40.358Z,0.35
2019-01-28T22:12:09.531Z,0.30
2019-01-28T22:14:38.687Z,0.33
2019-01-28T22:17:07.849Z,0.40
2019-01-28T22:19:36.998Z,0.28
2019-01-28T22:22:06.473Z,0.25
2019-01-28T22:24:35.671Z,0.31
2019-01-28T22:27:05.334Z,0.35
2019-01-28T22:29:34.485Z,0.48
2019-01-28T22:32:03.750Z,0.45
2019-01-28T22:34:32.887Z,0.43
2019-01-28T22:37:01.992Z,0.39
2019-01-28T22:39:31.207Z,0.42
2019-01-28T22:42:00.333Z,0.46
2019-01-28T22:44:29.535Z,0.35
2019-01-28T22:46:58.761Z,0.36
2019-01-28T22:49:27.866Z,0.34
2019-01-28T22:51:56.987Z,0.29
2019-01-28T22:54:26.155Z,0.29
2019-01-28T22:56:55.275Z,0.33
2019-01-28T22:59:24.501Z,0.34
2019-01-28T23:01:53.599Z,0.27
2019-01-28T23:04:22.862Z,0.28
2019-01-28T23:06:52.035Z,0.28
2019-01-28T23:09:21.158Z,0.23
2019-01-28T23:11:50.460Z,0.22
2019-01-28T23:14:19.548Z,0.20
2019-01-28T23:16:48.668Z,0.25
2019-01-28T23:19:17.792Z,0.25
2019-01-28T23:21:46.928Z,0.28
2019-01-28T23:24:16.418Z,0.27
2019-01-28T23:26:45.524Z,0.24
2019-01-28T23:29:15.028Z,0.23
2019-01-28T23:31:44.188Z,0.19
2019-01-28T23:34:13.309Z,0.19
2019-01-28T23:36:42.449Z,0.24
2019-01-28T23:39:11.719Z,0.26
2019-01-28T23:41:40.851Z,0.20
2019-01-28T23:44:10.422Z,0.24
2019-01-28T23:46:39.545Z,0.24
2019-01-28T23:49:08.666Z,0.26
2019-01-28T23:51:37.869Z,0.28
2019-01-28T23:54:07.000Z,0.30
2019-01-28T23:56:36.232Z,0.29
2019-01-28T23:59:05.475Z,0.24
